Time;durP1;ratioP1;P1;durP2;ratioP2;P2;SDS_P1;SDS_P2;PMS_P1;PMS_P2;Temp;Humidity;BMP_temperature;BMP_pressure;BME280_temperature;BME280_humidity;BME280_pressure;Samples;Min_cycle;Max_cycle;Signal;HPM_P1;HPM_P2
2023/06/11 00:02:33;;;;;;;;;;;;;;;26.44;39.54;101310.87;2279268;77;50345;-77
2023/06/11 00:05:33;;;;;;;;;;;;;;;26.43;39.56;101310.02;2310110;76;21764;-77
2023/06/11 00:08:34;;;;;;;;;;;;;;;26.43;39.54;101306.47;2315292;76;51457;-78
2023/06/11 00:11:41;;;;;;;;;;;;;;;26.43;39.54;101309.19;2294121;76;50988;-76
2023/06/11 00:14:39;;;;;;;;;;;;;;;26.43;39.54;101303.77;2293777;76;22482;-76
2023/06/11 00:17:41;;;;;;;;;;;;;;;26.43;39.81;101307.30;2322849;76;50316;-76
2023/06/11 00:20:43;;;;;;;;;;;;;;;26.43;39.66;101306.47;2269640;76;51584;-76
2023/06/11 00:23:45;;;;;;;;;;;;;;;26.44;39.67;101308.16;2293769;76;50079;-76
2023/06/11 00:26:55;;;;;;;;;;;;;;;26.43;39.65;101310.02;2323857;76;50638;-77
2023/06/11 00:30:03;;;;;;;;;;;;;;;26.44;39.65;101309.52;2322872;76;22384;-76
2023/06/11 00:33:04;;;;;;;;;;;;;;;26.43;39.59;101307.83;2324093;76;22550;-77
2023/06/11 00:36:06;;;;;;;;;;;;;;;26.44;39.62;101308.16;2295367;76;50814;-76
2023/06/11 00:39:07;;;;;;;;;;;;;;;26.43;39.59;101311.37;2281587;76;51252;-76
2023/06/11 00:42:10;;;;;;;;;;;;;;;26.43;39.60;101311.90;2300302;76;51648;-76
2023/06/11 00:45:12;;;;;;;;;;;;;;;26.42;39.59;101311.08;2280698;77;50808;-76
2023/06/11 00:48:13;;;;;;;;;;;;;;;26.42;39.61;101306.18;2280222;77;51512;-76
2023/06/11 00:51:15;;;;;;;;;;;;;;;26.43;39.59;101315.97;2279869;77;50734;-76
2023/06/11 00:54:17;;;;;;;;;;;;;;;26.43;39.60;101315.97;2298694;76;50719;-75
2023/06/11 00:57:22;;;;;;;;;;;;;;;26.43;39.57;101309.19;2274814;77;50653;-76
2023/06/11 01:00:22;;;;;;;;;;;;;;;26.42;39.54;101320.57;2285557;77;22810;-76
2023/06/11 01:03:26;;;;;;;;;;;;;;;26.42;39.49;101315.67;2256339;78;53763;-75
2023/06/11 01:06:28;;;;;;;;;;;;;;;26.41;39.47;101317.56;2308540;76;22358;-77
2023/06/11 01:09:30;;;;;;;;;;;;;;;26.42;39.45;101319.75;2321107;76;50515;-77
2023/06/11 01:12:32;;;;;;;;;;;;;;;26.42;39.45;101315.67;2322200;76;50386;-77
2023/06/11 01:15:34;;;;;;;;;;;;;;;26.40;39.46;101316.41;2322610;76;51485;-76
2023/06/11 01:18:37;;;;;;;;;;;;;;;26.41;39.42;101318.92;2322304;76;50382;-76
2023/06/11 01:21:41;;;;;;;;;;;;;;;26.40;39.39;101325.91;2293448;76;52609;-76
2023/06/11 01:24:57;;;;;;;;;;;;;;;26.40;39.40;101324.55;2293690;76;52600;-76
2023/06/11 01:28:09;;;;;;;;;;;;;;;26.39;39.39;101323.73;2322367;76;49827;-76
2023/06/11 01:31:17;;;;;;;;;;;;;;;26.40;39.40;101326.73;2322383;76;50448;-76
2023/06/11 01:34:18;;;;;;;;;;;;;;;26.38;39.40;101321.23;2322454;76;50458;-76
2023/06/11 01:37:20;;;;;;;;;;;;;;;26.39;39.38;101322.91;2262939;76;52123;-77
2023/06/11 01:40:22;;;;;;;;;;;;;;;26.38;39.35;101326.66;2293394;76;50366;-77
2023/06/11 01:43:25;;;;;;;;;;;;;;;26.38;39.34;101332.08;2322470;76;51427;-77
2023/06/11 01:46:27;;;;;;;;;;;;;;;26.37;39.34;101333.97;2293698;76;50360;-77
2023/06/11 01:49:29;;;;;;;;;;;;;;;26.38;39.31;101330.72;2293438;76;52463;-76
2023/06/11 01:52:30;;;;;;;;;;;;;;;26.37;39.28;101329.07;2322407;76;51521;-77
2023/06/11 01:55:32;;;;;;;;;;;;;;;26.37;39.26;101333.14;2322688;76;51522;-77
2023/06/11 01:58:34;;;;;;;;;;;;;;;26.36;39.16;101336.88;2293706;76;50664;-76
2023/06/11 02:01:36;;;;;;;;;;;;;;;26.36;39.16;101336.39;2293413;76;52213;-76
2023/06/11 02:04:38;;;;;;;;;;;;;;;26.36;39.12;101338.24;2322300;76;50395;-76
2023/06/11 02:07:40;;;;;;;;;;;;;;;26.35;39.09;101335.23;2289868;76;50672;-76
2023/06/11 02:10:43;;;;;;;;;;;;;;;26.35;39.06;101331.98;2322583;76;50316;-77
2023/06/11 02:13:45;;;;;;;;;;;;;;;26.35;38.97;101333.88;2293630;76;51786;-76
2023/06/11 02:16:46;;;;;;;;;;;;;;;26.33;38.97;101339.51;2293687;76;50712;-76
2023/06/11 02:19:48;;;;;;;;;;;;;;;26.34;38.89;101332.23;2322572;76;50402;-76
2023/06/11 02:22:49;;;;;;;;;;;;;;;26.33;38.87;101333.26;2323888;76;51447;-76
2023/06/11 02:25:51;;;;;;;;;;;;;;;26.34;38.87;101333.59;2295008;76;51854;-76
2023/06/11 02:28:52;;;;;;;;;;;;;;;26.33;38.84;101340.04;2294773;76;51507;-76
2023/06/11 02:31:54;;;;;;;;;;;;;;;26.32;38.77;101337.86;2323130;76;50644;-76
2023/06/11 02:34:56;;;;;;;;;;;;;;;26.32;38.73;101341.11;2294436;76;50201;-76
2023/06/11 02:37:57;;;;;;;;;;;;;;;26.31;38.68;101339.42;2284621;76;51757;-76
2023/06/11 02:40:59;;;;;;;;;;;;;;;26.31;38.66;101346.20;2278854;77;50744;-76
2023/06/11 02:44:00;;;;;;;;;;;;;;;26.29;38.71;101344.55;2278982;77;50333;-76
2023/06/11 02:47:02;;;;;;;;;;;;;;;26.29;38.66;101339.13;2298194;76;50661;-76
2023/06/11 02:50:04;;;;;;;;;;;;;;;26.28;38.55;101340.19;2298421;76;50377;-76
2023/06/11 02:53:06;;;;;;;;;;;;;;;26.28;38.54;101344.26;2279278;77;50639;-77
2023/06/11 02:56:07;;;;;;;;;;;;;;;26.28;38.61;101344.26;2298147;76;51525;-74
2023/06/11 02:59:09;;;;;;;;;;;;;;;26.28;38.59;101347.47;2283983;77;53553;-76
2023/06/11 03:02:10;;;;;;;;;;;;;;;26.27;38.50;101346.64;2259213;76;50164;-75
2023/06/11 03:05:12;;;;;;;;;;;;;;;26.28;38.40;101350.19;2272183;76;51557;-76
2023/06/11 03:08:14;;;;;;;;;;;;;;;26.27;38.37;101347.17;2246274;78;52472;-76
2023/06/11 03:11:15;;;;;;;;;;;;;;;26.26;38.36;101345.00;2259865;78;50288;-76
2023/06/11 03:14:17;;;;;;;;;;;;;;;26.26;38.39;101351.78;2241440;78;52722;-76
2023/06/11 03:17:19;;;;;;;;;;;;;;;26.26;38.43;101361.27;2241344;77;51960;-76
2023/06/11 03:20:20;;;;;;;;;;;;;;;26.25;38.41;101356.05;2260121;78;51458;-76
2023/06/11 03:23:22;;;;;;;;;;;;;;;26.24;38.36;101355.23;2241720;78;50734;-76
2023/06/11 03:26:24;;;;;;;;;;;;;;;26.24;38.34;101359.30;2241103;78;50102;-76
2023/06/11 03:29:26;;;;;;;;;;;;;;;26.24;38.37;101359.83;2261991;78;51600;-76
2023/06/11 03:32:27;;;;;;;;;;;;;;;26.24;38.34;101354.40;2296189;76;50841;-76
2023/06/11 03:35:29;;;;;;;;;;;;;;;26.23;38.22;101360.36;2318111;75;50277;-75
2023/06/11 03:38:30;;;;;;;;;;;;;;;26.24;38.20;101355.75;2245663;78;52288;-75
2023/06/11 03:41:32;;;;;;;;;;;;;;;26.24;38.17;101362.54;2260636;77;51435;-75
2023/06/11 03:44:34;;;;;;;;;;;;;;;26.24;38.14;101364.72;2284881;75;50457;-76
2023/06/11 03:47:35;;;;;;;;;;;;;;;26.24;38.11;101359.30;2276392;76;50689;-75
2023/06/11 03:50:37;;;;;;;;;;;;;;;26.23;38.10;101363.06;2258680;76;50061;-76
2023/06/11 03:53:38;;;;;;;;;;;;;;;26.23;38.09;101367.14;2294776;76;50449;-75
2023/06/11 03:56:40;;;;;;;;;;;;;;;26.23;38.14;101370.34;2325747;76;50352;-76
2023/06/11 03:59:42;;;;;;;;;;;;;;;26.23;38.11;101369.85;2327882;75;50659;-76
2023/06/11 04:02:43;;;;;;;;;;;;;;;26.23;38.06;101370.34;2299685;75;51701;-75
2023/06/11 04:05:45;;;;;;;;;;;;;;;26.22;38.03;101364.63;2296760;76;50161;-76
2023/06/11 04:08:46;;;;;;;;;;;;;;;26.22;37.99;101380.91;2324795;76;50318;-75
2023/06/11 04:11:48;;;;;;;;;;;;;;;26.22;37.84;101369.52;2325174;75;50641;-76
2023/06/11 04:14:50;;;;;;;;;;;;;;;26.22;37.89;101376.84;2261911;76;49928;-77
2023/06/11 04:17:51;;;;;;;;;;;;;;;26.22;37.99;101370.05;2293242;76;50330;-74
2023/06/11 04:20:53;;;;;;;;;;;;;;;26.22;38.07;101374.95;2293995;76;50784;-74
2023/06/11 04:23:55;;;;;;;;;;;;;;;26.22;37.99;101380.91;2323034;76;50738;-76
2023/06/11 04:27:01;;;;;;;;;;;;;;;26.22;37.95;101383.63;2268631;76;51200;-76
2023/06/11 04:30:01;;;;;;;;;;;;;;;26.22;37.96;101384.45;2292452;76;22411;-76
2023/06/11 04:33:04;;;;;;;;;;;;;;;26.21;37.88;101381.44;2322618;76;51566;-76
2023/06/11 04:36:11;;;;;;;;;;;;;;;26.21;37.87;101390.94;2322797;76;50690;-76
2023/06/11 04:39:09;;;;;;;;;;;;;;;26.23;37.83;101383.91;2292624;76;22369;-77
2023/06/11 04:42:11;;;;;;;;;;;;;;;26.25;38.05;101385.89;2293536;76;50342;-77
2023/06/11 04:45:18;;;;;;;;;;;;;;;26.25;38.30;101387.25;2314023;75;50819;-76
2023/06/11 04:48:21;;;;;;;;;;;;;;;26.27;38.20;101391.41;2321814;76;22399;-76
2023/06/11 04:51:20;;;;;;;;;;;;;;;26.32;38.06;101385.87;2322491;76;22097;-75
2023/06/11 04:54:22;;;;;;;;;;;;;;;26.36;37.90;101392.02;2293911;76;50700;-75
2023/06/11 04:57:23;;;;;;;;;;;;;;;26.41;37.78;101381.84;2322342;76;50417;-76
2023/06/11 05:00:26;;;;;;;;;;;;;;;26.46;37.62;101381.52;2293385;76;50433;-76
2023/06/11 05:03:29;;;;;;;;;;;;;;;26.51;37.46;101380.84;2293372;76;50160;-76
2023/06/11 05:06:33;;;;;;;;;;;;;;;26.57;37.23;101385.44;2322192;76;50415;-76
2023/06/11 05:09:34;;;;;;;;;;;;;;;26.64;37.04;101390.81;2294232;76;22529;-76
2023/06/11 05:12:36;;;;;;;;;;;;;;;26.67;36.99;101385.79;2322945;76;50690;-76
2023/06/11 05:15:42;;;;;;;;;;;;;;;26.73;36.81;101391.39;2290100;76;50681;-77
2023/06/11 05:18:44;;;;;;;;;;;;;;;26.80;36.61;101382.15;2296912;77;50699;-76
2023/06/11 05:21:46;;;;;;;;;;;;;;;26.85;36.47;101385.03;2299816;76;50756;-76
2023/06/11 05:24:48;;;;;;;;;;;;;;;26.90;36.37;101390.64;2300483;76;50469;-76
2023/06/11 05:27:51;;;;;;;;;;;;;;;26.96;36.17;101392.98;2279956;77;50658;-76
2023/06/11 05:30:53;;;;;;;;;;;;;;;27.01;36.08;101386.37;2298719;77;51572;-76
2023/06/11 05:33:54;;;;;;;;;;;;;;;27.07;35.94;101390.08;2297928;76;50715;-76
2023/06/11 05:36:56;;;;;;;;;;;;;;;27.12;35.82;101388.34;2297439;76;50725;-76
2023/06/11 05:39:58;;;;;;;;;;;;;;;27.14;35.57;101391.68;2278802;77;50624;-76
2023/06/11 05:43:00;;;;;;;;;;;;;;;27.18;35.21;101396.19;2279752;76;51526;-76
2023/06/11 05:46:01;;;;;;;;;;;;;;;27.21;34.99;101392.20;2310924;75;50850;-76
2023/06/11 05:49:03;;;;;;;;;;;;;;;27.23;34.65;101388.70;2352507;74;50326;-76
2023/06/11 05:52:05;;;;;;;;;;;;;;;27.27;34.40;101389.94;2332072;75;51672;-77
2023/06/11 05:55:07;;;;;;;;;;;;;;;27.31;34.14;101393.88;2321609;75;51473;-76
2023/06/11 05:58:08;;;;;;;;;;;;;;;27.33;33.92;101393.10;2308269;75;50255;-75
2023/06/11 06:01:12;;;;;;;;;;;;;;;27.36;33.78;101396.76;2333186;75;50271;-74
2023/06/11 06:04:15;;;;;;;;;;;;;;;27.41;33.61;101403.72;2355622;74;24906;-75
2023/06/11 06:07:17;;;;;;;;;;;;;;;27.43;33.43;101397.50;2334135;75;51663;-74
2023/06/11 06:10:18;;;;;;;;;;;;;;;27.48;33.28;101400.91;2322418;76;51517;-74
2023/06/11 06:13:20;;;;;;;;;;;;;;;27.50;33.13;101404.24;2293312;76;51473;-74
2023/06/11 06:16:22;;;;;;;;;;;;;;;27.53;32.98;101405.97;2293024;75;51134;-75
2023/06/11 06:19:23;;;;;;;;;;;;;;;27.56;32.83;101399.25;2322544;75;50283;-74
2023/06/11 06:22:25;;;;;;;;;;;;;;;27.58;32.82;101406.66;2293304;76;50035;-74
2023/06/11 06:25:27;;;;;;;;;;;;;;;27.60;32.77;101410.53;2290522;76;50222;-74
2023/06/11 06:28:30;;;;;;;;;;;;;;;27.63;32.79;101406.81;2280034;77;52515;-74
2023/06/11 06:31:32;;;;;;;;;;;;;;;27.64;32.66;101400.31;2297516;76;50338;-74
2023/06/11 06:34:34;;;;;;;;;;;;;;;27.66;32.55;101405.53;2310163;75;51573;-74
2023/06/11 06:37:36;;;;;;;;;;;;;;;27.67;32.50;101401.75;2322399;75;50710;-75
2023/06/11 06:40:38;;;;;;;;;;;;;;;27.68;32.34;101409.69;2293055;76;51671;-74
2023/06/11 06:43:39;;;;;;;;;;;;;;;27.76;32.35;101408.56;2293434;75;52263;-76
2023/06/11 06:46:41;;;;;;;;;;;;;;;27.84;32.37;101406.10;2324521;76;50731;-76
2023/06/11 06:49:42;;;;;;;;;;;;;;;27.82;31.57;101402.77;2295575;76;51561;-76
2023/06/11 06:52:44;;;;;;;;;;;;;;;27.68;30.56;101400.17;2268221;76;51643;-74
2023/06/11 06:55:48;;;;;;;;;;;;;;;27.61;30.05;101408.10;2290465;75;50099;-76
2023/06/11 06:58:49;;;;;;;;;;;;;;;27.51;30.77;101409.47;2322164;75;51542;-77
2023/06/11 07:01:51;;;;;;;;;;;;;;;27.51;30.08;101406.75;2293672;76;50635;-77
2023/06/11 07:04:53;;;;;;;;;;;;;;;27.57;29.87;101400.40;2301068;75;51485;-77
2023/06/11 07:07:54;;;;;;;;;;;;;;;27.62;29.97;101405.67;2309441;75;51573;-77
2023/06/11 07:10:56;;;;;;;;;;;;;;;27.61;29.83;101413.00;2335197;75;51524;-77
2023/06/11 07:13:58;;;;;;;;;;;;;;;27.62;29.71;101408.39;2324959;75;50810;-79
2023/06/11 07:16:59;;;;;;;;;;;;;;;27.61;30.05;101408.10;2278602;76;50978;-78
2023/06/11 07:20:01;;;;;;;;;;;;;;;27.56;29.91;101406.87;2318312;76;50736;-77
2023/06/11 07:23:03;;;;;;;;;;;;;;;27.55;30.00;101412.55;2353808;74;50354;-76
2023/06/11 07:26:05;;;;;;;;;;;;;;;27.52;29.86;101414.37;2331437;75;50051;-78
2023/06/11 07:29:06;;;;;;;;;;;;;;;27.13;29.55;101402.25;2309364;75;52568;-77
2023/06/11 07:32:08;;;;;;;;;;;;;;;27.10;30.17;101401.34;2330419;75;51484;-75
2023/06/11 07:35:09;;;;;;;;;;;;;;;26.69;29.77;101401.34;2350285;74;51543;-77
2023/06/11 07:38:11;;;;;;;;;;;;;;;26.71;30.05;101393.78;2353319;74;51537;-77
2023/06/11 07:41:16;;;;;;;;;;;;;;;26.64;30.29;101395.73;2258840;75;52519;-76
2023/06/11 07:44:17;;;;;;;;;;;;;;;26.68;30.77;101400.19;2357589;74;50668;-76
2023/06/11 07:47:19;;;;;;;;;;;;;;;26.57;30.67;101396.30;2323876;75;51529;-77
2023/06/11 07:50:21;;;;;;;;;;;;;;;26.62;30.74;101414.12;2303043;75;50666;-77
2023/06/11 07:53:22;;;;;;;;;;;;;;;26.60;30.61;101399.92;2270199;76;51703;-75
2023/06/11 07:56:24;;;;;;;;;;;;;;;26.58;30.75;101404.73;2319624;74;50430;-76
2023/06/11 07:59:25;;;;;;;;;;;;;;;26.53;31.08;101399.13;2364216;75;50420;-76
2023/06/11 08:02:28;;;;;;;;;;;;;;;26.54;30.83;101410.81;2332620;74;51436;-77
2023/06/11 08:05:30;;;;;;;;;;;;;;;26.59;31.31;101403.70;2332814;75;52612;-77
2023/06/11 08:08:31;;;;;;;;;;;;;;;26.63;31.42;101406.27;2332661;75;50955;-78
2023/06/11 08:11:33;;;;;;;;;;;;;;;26.17;30.99;101401.89;2350419;74;50597;-78
2023/06/11 08:14:35;;;;;;;;;;;;;;;25.54;31.33;101406.56;2332797;75;51717;-75
2023/06/11 08:17:36;;;;;;;;;;;;;;;25.68;31.59;101406.00;2297026;76;51188;-72
2023/06/11 08:20:38;;;;;;;;;;;;;;;25.93;31.77;101405.34;2294990;76;50724;-73
2023/06/11 08:23:39;;;;;;;;;;;;;;;25.96;31.89;101407.09;2295295;76;51412;-73
2023/06/11 08:26:41;;;;;;;;;;;;;;;26.14;31.71;101405.05;2324337;76;51654;-72
2023/06/11 08:29:43;;;;;;;;;;;;;;;26.04;31.70;101406.85;2279813;74;52304;-74
2023/06/11 08:32:44;;;;;;;;;;;;;;;26.11;31.83;101408.19;2307470;75;50631;-74
2023/06/11 08:35:47;;;;;;;;;;;;;;;25.95;31.54;101404.09;2316133;74;50327;-75
2023/06/11 08:38:49;;;;;;;;;;;;;;;25.91;31.77;101402.01;2364238;75;51659;-74
2023/06/11 08:41:50;;;;;;;;;;;;;;;25.82;31.73;101408.17;2334444;74;52285;-73
2023/06/11 08:44:52;;;;;;;;;;;;;;;25.84;31.85;101393.85;2364544;75;51503;-74
2023/06/11 08:47:53;;;;;;;;;;;;;;;25.69;31.72;101391.42;2326794;75;50243;-75
2023/06/11 08:50:55;;;;;;;;;;;;;;;25.32;32.33;101399.17;2324463;76;50373;-74
2023/06/11 08:53:56;;;;;;;;;;;;;;;25.63;32.38;101394.43;2324475;76;51474;-74
2023/06/11 08:56:58;;;;;;;;;;;;;;;25.30;32.42;101399.90;2324123;76;50273;-75
2023/06/11 09:00:00;;;;;;;;;;;;;;;24.85;33.18;101394.26;2295168;76;51355;-78
2023/06/11 09:03:01;;;;;;;;;;;;;;;25.16;33.10;101390.14;2295072;76;50263;-74
2023/06/11 09:06:03;;;;;;;;;;;;;;;25.33;32.88;101390.52;2324429;75;51480;-74
2023/06/11 09:09:08;;;;;;;;;;;;;;;25.07;33.15;101389.99;2324389;76;51388;-74
2023/06/11 09:12:10;;;;;;;;;;;;;;;25.34;33.00;101387.62;2324361;76;50310;-74
2023/06/11 09:15:12;;;;;;;;;;;;;;;25.27;32.76;101394.08;2295324;75;51487;-74
2023/06/11 09:18:16;;;;;;;;;;;;;;;24.52;33.63;101386.09;2293241;76;52439;-74
2023/06/11 09:21:17;;;;;;;;;;;;;;;24.95;33.44;101385.20;2321914;76;51689;-76
2023/06/11 09:24:19;;;;;;;;;;;;;;;25.21;33.27;101380.86;2322315;76;50396;-74
2023/06/11 09:27:21;;;;;;;;;;;;;;;25.12;32.99;101376.66;2322020;76;51577;-73
2023/06/11 09:30:23;;;;;;;;;;;;;;;25.15;33.30;101381.65;2293075;76;52389;-75
2023/06/11 09:33:25;;;;;;;;;;;;;;;25.05;33.40;101373.11;2293369;76;50323;-75
2023/06/11 09:36:26;;;;;;;;;;;;;;;25.29;33.17;101372.52;2316494;75;51523;-75
2023/06/11 09:39:28;;;;;;;;;;;;;;;25.41;32.88;101370.83;2292080;76;50332;-75
2023/06/11 09:42:30;;;;;;;;;;;;;;;25.42;32.86;101373.02;2293220;75;52479;-74
2023/06/11 09:45:31;;;;;;;;;;;;;;;25.19;32.82;101369.40;2293198;76;51543;-75
2023/06/11 09:48:33;;;;;;;;;;;;;;;25.32;32.89;101372.61;2322054;76;51531;-75
2023/06/11 09:51:36;;;;;;;;;;;;;;;24.89;33.37;101367.09;2322232;76;51477;-74
2023/06/11 09:54:37;;;;;;;;;;;;;;;25.06;33.44;101366.14;2294020;75;51391;-74
2023/06/11 09:57:40;;;;;;;;;;;;;;;24.76;33.51;101363.01;2322275;76;50350;-74
2023/06/11 10:00:41;;;;;;;;;;;;;;;24.49;34.34;101365.69;2322305;76;51540;-74
2023/06/11 10:03:43;;;;;;;;;;;;;;;24.50;34.47;101357.05;2322288;75;51536;-74
2023/06/11 10:06:46;;;;;;;;;;;;;;;24.55;34.37;101362.67;2285849;76;50117;-74
2023/06/11 10:09:48;;;;;;;;;;;;;;;24.67;33.96;101361.03;2321592;76;51383;-74
2023/06/11 10:12:50;;;;;;;;;;;;;;;24.88;33.90;101364.06;2322250;76;51523;-74
2023/06/11 10:15:53;;;;;;;;;;;;;;;25.03;33.89;101363.86;2322308;76;51598;-74
2023/06/11 10:19:07;;;;;;;;;;;;;;;25.15;33.73;101362.69;2322088;76;51548;-74
2023/06/11 10:22:09;;;;;;;;;;;;;;;25.30;33.54;101349.79;2322039;76;51568;-74
2023/06/11 10:25:10;;;;;;;;;;;;;;;25.38;33.38;101358.22;2322305;76;50670;-73
2023/06/11 10:28:13;;;;;;;;;;;;;;;25.30;32.91;101361.98;2321941;76;51492;-74
2023/06/11 10:31:25;;;;;;;;;;;;;;;25.27;33.18;101352.92;2268387;76;51248;-73
2023/06/11 10:34:26;;;;;;;;;;;;;;;25.25;33.00;101355.00;2322298;76;50291;-73
2023/06/11 10:37:39;;;;;;;;;;;;;;;25.32;33.04;101339.58;2313728;75;50220;-74
2023/06/11 10:40:38;;;;;;;;;;;;;;;25.28;33.25;101344.27;2321058;76;22464;-73
2023/06/11 10:43:40;;;;;;;;;;;;;;;25.28;33.11;101337.00;2293263;76;52475;-73
2023/06/11 10:46:46;;;;;;;;;;;;;;;25.33;33.01;101345.33;2293468;76;51559;-72
2023/06/11 10:49:48;;;;;;;;;;;;;;;25.32;32.83;101339.58;2317987;76;51578;-73
2023/06/11 10:52:51;;;;;;;;;;;;;;;25.33;32.67;101343.97;2322075;76;50030;-73
2023/06/11 10:55:52;;;;;;;;;;;;;;;25.35;32.55;101343.74;2322264;76;51513;-73
2023/06/11 10:58:55;;;;;;;;;;;;;;;25.50;32.53;101343.51;2322098;76;51748;-73
2023/06/11 11:01:56;;;;;;;;;;;;;;;25.58;32.48;101339.20;2322231;76;50316;-73
2023/06/11 11:04:58;;;;;;;;;;;;;;;25.52;32.41;101341.42;2322490;75;50732;-73
2023/06/11 11:08:00;;;;;;;;;;;;;;;25.57;32.39;101346.52;2292601;76;52511;-73
2023/06/11 11:11:02;;;;;;;;;;;;;;;25.64;31.56;101337.02;2293335;76;51480;-73
2023/06/11 11:14:03;;;;;;;;;;;;;;;25.60;30.71;101343.89;2293341;76;51605;-73
2023/06/11 11:17:05;;;;;;;;;;;;;;;25.63;30.65;101342.11;2321974;76;51539;-73
2023/06/11 11:20:08;;;;;;;;;;;;;;;25.67;31.14;101331.69;2292792;76;51192;-73
2023/06/11 11:23:10;;;;;;;;;;;;;;;25.66;31.44;101324.59;2293227;76;50679;-73
2023/06/11 11:26:11;;;;;;;;;;;;;;;25.76;31.46;101331.22;2293182;76;51315;-73
2023/06/11 11:29:13;;;;;;;;;;;;;;;25.78;31.17;101335.08;2322230;76;51524;-73
2023/06/11 11:32:15;;;;;;;;;;;;;;;25.74;31.26;101331.12;2293149;76;51602;-73
2023/06/11 11:35:16;;;;;;;;;;;;;;;25.79;31.63;101321.32;2322403;75;51515;-73
2023/06/11 11:38:18;;;;;;;;;;;;;;;25.87;31.45;101322.98;2313534;76;50617;-73
2023/06/11 11:41:22;;;;;;;;;;;;;;;26.01;31.33;101304.23;2322202;76;50333;-74
2023/06/11 11:44:24;;;;;;;;;;;;;;;25.80;31.89;101306.70;2321788;76;51482;-74
2023/06/11 11:47:27;;;;;;;;;;;;;;;25.85;31.89;101316.95;2322094;76;50732;-73
2023/06/11 11:50:33;;;;;;;;;;;;;;;25.87;31.76;101304.51;2322134;76;51504;-75
2023/06/11 11:53:37;;;;;;;;;;;;;;;25.88;31.74;101306.19;2322251;76;50755;-72
2023/06/11 11:56:38;;;;;;;;;;;;;;;25.96;31.75;101299.98;2292849;76;50532;-72
2023/06/11 11:59:40;;;;;;;;;;;;;;;26.04;31.81;101298.90;2322361;76;50671;-72
2023/06/11 12:02:43;;;;;;;;;;;;;;;26.01;31.93;101299.34;2322387;76;51446;-73
2023/06/11 12:05:46;;;;;;;;;;;;;;;26.04;33.35;101298.37;2322482;75;50318;-73
2023/06/11 12:08:47;;;;;;;;;;;;;;;25.76;34.17;101305.46;2288017;76;51353;-73
2023/06/11 12:11:49;;;;;;;;;;;;;;;25.49;34.80;101295.79;2322201;76;50699;-73
2023/06/11 12:14:51;;;;;;;;;;;;;;;25.61;34.67;101287.28;2294854;76;50535;-73
2023/06/11 12:17:52;;;;;;;;;;;;;;;25.82;34.37;101287.53;2322262;76;50440;-73
2023/06/11 12:20:54;;;;;;;;;;;;;;;25.57;34.69;101290.13;2293148;76;52495;-73
2023/06/11 12:23:56;;;;;;;;;;;;;;;25.58;34.94;101280.94;2293683;76;51668;-73
2023/06/11 12:26:59;;;;;;;;;;;;;;;25.82;34.63;101284.28;2293389;76;51389;-74
2023/06/11 12:30:00;;;;;;;;;;;;;;;25.91;34.59;101280.00;2293896;76;50391;-73
2023/06/11 12:33:02;;;;;;;;;;;;;;;25.98;34.37;101285.69;2293516;76;51181;-73
2023/06/11 12:36:04;;;;;;;;;;;;;;;26.06;34.36;101280.53;2294205;76;51399;-73
2023/06/11 12:39:06;;;;;;;;;;;;;;;26.07;34.71;101286.25;2285699;77;51484;-74
2023/06/11 12:42:07;;;;;;;;;;;;;;;26.02;34.88;101271.16;2299292;76;50742;-73
2023/06/11 12:45:09;;;;;;;;;;;;;;;26.04;34.72;101270.42;2303027;75;51406;-73
2023/06/11 12:48:11;;;;;;;;;;;;;;;26.06;34.65;101269.16;2285495;76;51175;-74
2023/06/11 12:51:13;;;;;;;;;;;;;;;26.01;34.89;101266.80;2297899;77;50298;-73
2023/06/11 12:54:15;;;;;;;;;;;;;;;25.94;35.68;101278.20;2299585;76;51440;-72
2023/06/11 12:57:16;;;;;;;;;;;;;;;25.90;35.96;101279.17;2282646;77;50612;-73
2023/06/11 13:00:18;;;;;;;;;;;;;;;26.02;35.88;101277.94;2279525;76;52648;-72
2023/06/11 13:03:20;;;;;;;;;;;;;;;26.04;35.77;101275.84;2279043;77;51636;-73
2023/06/11 13:06:21;;;;;;;;;;;;;;;26.07;35.84;101265.91;2278653;76;50597;-73
2023/06/11 13:09:24;;;;;;;;;;;;;;;26.11;35.92;101272.58;2279276;77;51415;-72
2023/06/11 13:12:27;;;;;;;;;;;;;;;25.91;36.38;101275.92;2281686;77;52679;-73
2023/06/11 13:15:28;;;;;;;;;;;;;;;25.76;36.50;101274.28;2306888;75;50795;-73
2023/06/11 13:18:30;;;;;;;;;;;;;;;25.96;36.09;101267.44;2303353;76;51528;-73
2023/06/11 13:21:31;;;;;;;;;;;;;;;25.81;36.16;101270.41;2297458;76;51439;-74
2023/06/11 13:24:33;;;;;;;;;;;;;;;25.82;36.23;101273.44;2278602;77;51121;-73
2023/06/11 13:27:35;;;;;;;;;;;;;;;25.56;36.50;101264.05;2278198;76;51460;-73
2023/06/11 13:30:37;;;;;;;;;;;;;;;25.63;36.24;101251.31;2297608;76;50024;-73
2023/06/11 13:33:38;;;;;;;;;;;;;;;25.76;36.04;101255.31;2278523;77;50676;-73
2023/06/11 13:36:40;;;;;;;;;;;;;;;25.90;35.95;101247.98;2297267;76;50289;-73
2023/06/11 13:39:41;;;;;;;;;;;;;;;25.91;35.76;101253.70;2278351;76;50266;-73
2023/06/11 13:42:43;;;;;;;;;;;;;;;26.04;35.58;101246.84;2297619;76;50464;-74
2023/06/11 13:45:45;;;;;;;;;;;;;;;26.04;35.04;101249.55;2307203;75;51610;-73
2023/06/11 13:48:46;;;;;;;;;;;;;;;26.07;34.85;101249.64;2289267;76;52413;-73
2023/06/11 13:51:48;;;;;;;;;;;;;;;26.15;34.90;101249.41;2293158;76;51590;-74
2023/06/11 13:54:49;;;;;;;;;;;;;;;26.18;34.69;101246.25;2293252;76;50254;-74
2023/06/11 13:57:52;;;;;;;;;;;;;;;26.32;34.61;101241.55;2321949;76;50294;-74
2023/06/11 14:00:54;;;;;;;;;;;;;;;26.26;34.40;101241.08;2268762;75;52582;-74
2023/06/11 14:03:55;;;;;;;;;;;;;;;26.24;34.29;101235.03;2293465;76;51398;-74
2023/06/11 14:06:57;;;;;;;;;;;;;;;26.19;34.26;101235.69;2321852;75;52546;-75
2023/06/11 14:10:04;;;;;;;;;;;;;;;26.29;33.93;101234.67;2322122;75;51528;-74
2023/06/11 14:13:02;;;;;;;;;;;;;;;26.23;33.87;101237.42;2293110;76;22375;-74
2023/06/11 14:16:04;;;;;;;;;;;;;;;26.05;33.80;101236.84;2322563;75;51580;-74
2023/06/11 14:19:07;;;;;;;;;;;;;;;26.09;33.84;101238.59;2313448;76;51438;-74
2023/06/11 14:22:08;;;;;;;;;;;;;;;26.00;33.90;101235.31;2322165;76;22301;-74
2023/06/11 14:25:10;;;;;;;;;;;;;;;25.98;33.86;101235.52;2293033;76;51118;-74
2023/06/11 14:28:12;;;;;;;;;;;;;;;26.03;33.81;101228.92;2292885;76;50665;-74
2023/06/11 14:31:13;;;;;;;;;;;;;;;26.12;33.86;101236.25;2293446;76;51455;-74
2023/06/11 14:34:15;;;;;;;;;;;;;;;26.16;34.02;101232.59;2293100;76;51607;-76
2023/06/11 14:37:16;;;;;;;;;;;;;;;26.16;34.06;101236.13;2292705;76;52370;-75
2023/06/11 14:40:18;;;;;;;;;;;;;;;26.14;34.11;101235.52;2293058;76;51452;-75
2023/06/11 14:43:19;;;;;;;;;;;;;;;26.16;33.71;101232.59;2322085;76;51533;-75
2023/06/11 14:46:22;;;;;;;;;;;;;;;26.28;33.50;101223.53;2322360;75;51556;-75
2023/06/11 14:49:23;;;;;;;;;;;;;;;26.24;33.40;101222.30;2281425;77;51170;-75
2023/06/11 14:52:25;;;;;;;;;;;;;;;26.28;33.22;101215.39;2278249;77;50364;-75
2023/06/11 14:55:27;;;;;;;;;;;;;;;26.30;33.42;101219.22;2278175;76;51570;-75
2023/06/11 14:58:28;;;;;;;;;;;;;;;26.29;33.56;101222.47;2297189;76;51588;-75
2023/06/11 15:01:30;;;;;;;;;;;;;;;26.40;32.58;101226.34;2278363;77;50722;-75
2023/06/11 15:04:31;;;;;;;;;;;;;;;26.45;32.23;101217.54;2297439;76;50270;-75
2023/06/11 15:07:34;;;;;;;;;;;;;;;26.40;31.69;101222.27;2297110;76;50662;-75
2023/06/11 15:10:36;;;;;;;;;;;;;;;26.39;31.65;101217.08;2297282;76;51669;-76
2023/06/11 15:13:37;;;;;;;;;;;;;;;26.37;31.30;101216.47;2253442;76;51212;-75
2023/06/11 15:16:39;;;;;;;;;;;;;;;26.32;30.90;101206.80;2289768;76;51296;-75
2023/06/11 15:19:42;;;;;;;;;;;;;;;26.07;31.14;101203.53;2322120;76;50660;-74
2023/06/11 15:22:44;;;;;;;;;;;;;;;26.06;31.16;101205.95;2322264;76;24918;-75
2023/06/11 15:25:45;;;;;;;;;;;;;;;26.01;31.25;101205.78;2267642;76;52624;-75
2023/06/11 15:28:47;;;;;;;;;;;;;;;26.09;31.33;101197.38;2321855;76;50730;-75
2023/06/11 15:31:50;;;;;;;;;;;;;;;26.21;31.04;101202.39;2293137;76;50740;-74
2023/06/11 15:34:51;;;;;;;;;;;;;;;26.23;30.99;101196.73;2322029;76;51395;-75